createdAt,value
2018-06-27T00:01:43.629Z,10.50
2018-06-27T00:04:17.540Z,13.93
2018-06-27T00:06:51.782Z,14.13
2018-06-27T00:09:25.633Z,11.93
2018-06-27T00:11:59.565Z,11.10
2018-06-27T00:14:33.531Z,10.73
2018-06-27T00:17:07.659Z,11.47
2018-06-27T00:19:41.536Z,10.33
2018-06-27T00:22:16.004Z,9.83
2018-06-27T00:24:50.206Z,10.77
2018-06-27T00:27:24.367Z,9.83
2018-06-27T00:29:58.256Z,11.30
2018-06-27T00:32:33.340Z,10.27
2018-06-27T00:35:07.181Z,10.13
2018-06-27T00:37:41.157Z,10.10
2018-06-27T00:40:15.002Z,10.13
2018-06-27T00:42:48.970Z,8.73
2018-06-27T00:45:22.836Z,8.97
2018-06-27T00:47:57.072Z,10.20
2018-06-27T00:50:30.947Z,10.50
2018-06-27T00:53:05.176Z,9.40
2018-06-27T00:55:39.371Z,10.20
2018-06-27T00:58:13.452Z,10.27
2018-06-27T01:00:47.201Z,10.60
2018-06-27T01:03:21.117Z,11.37
2018-06-27T01:05:55.915Z,10.47
2018-06-27T01:08:29.917Z,10.20
2018-06-27T01:11:04.026Z,10.03
2018-06-27T01:13:38.095Z,10.30
2018-06-27T01:16:12.179Z,11.33
2018-06-27T01:18:46.115Z,12.37
2018-06-27T01:21:20.320Z,10.37
2018-06-27T01:23:54.413Z,11.10
2018-06-27T01:26:28.400Z,11.50
2018-06-27T01:29:02.545Z,10.00
2018-06-27T01:31:36.472Z,11.07
2018-06-27T01:34:10.596Z,11.70
2018-06-27T01:36:45.240Z,11.53
2018-06-27T01:39:19.347Z,10.53
2018-06-27T01:41:53.296Z,12.07
2018-06-27T01:44:27.553Z,10.10
2018-06-27T01:47:01.331Z,10.30
2018-06-27T01:49:35.141Z,10.60
2018-06-27T01:52:08.952Z,10.70
2018-06-27T01:54:43.209Z,10.47
2018-06-27T01:57:17.167Z,10.90
2018-06-27T01:59:51.058Z,10.00
2018-06-27T02:02:25.178Z,10.30
2018-06-27T02:04:59.053Z,10.73
2018-06-27T02:07:32.906Z,9.93
2018-06-27T02:10:07.054Z,9.77
2018-06-27T02:12:41.557Z,9.60
2018-06-27T02:15:15.711Z,10.47
2018-06-27T02:17:49.541Z,10.30
2018-06-27T02:20:24.045Z,10.20
2018-06-27T02:23:14.966Z,11.37
2018-06-27T02:25:48.945Z,9.73
2018-06-27T02:28:23.191Z,11.00
2018-06-27T02:30:57.117Z,10.93
2018-06-27T02:33:32.095Z,9.80
2018-06-27T02:36:06.765Z,10.90
2018-06-27T02:38:40.716Z,10.67
2018-06-27T02:41:14.949Z,11.63
2018-06-27T02:43:49.055Z,10.30
2018-06-27T02:46:23.162Z,11.10
2018-06-27T02:48:56.910Z,10.47
2018-06-27T02:51:30.732Z,9.87
2018-06-27T02:54:04.845Z,10.50
2018-06-27T02:56:38.776Z,10.07
2018-06-27T02:59:12.726Z,9.13
2018-06-27T03:01:46.795Z,11.03
2018-06-27T03:04:20.797Z,10.70
2018-06-27T03:06:54.951Z,10.67
2018-06-27T03:09:28.813Z,11.20
2018-06-27T03:12:02.556Z,11.57
2018-06-27T03:14:36.745Z,12.13
2018-06-27T03:17:11.882Z,10.50
2018-06-27T03:19:45.907Z,11.80
2018-06-27T03:22:19.922Z,11.20
2018-06-27T03:24:54.274Z,11.60
2018-06-27T03:27:28.751Z,12.13
2018-06-27T03:30:03.095Z,11.43
2018-06-27T03:32:37.316Z,12.00
2018-06-27T03:35:11.246Z,11.17
2018-06-27T03:37:45.233Z,11.53
2018-06-27T03:40:19.195Z,11.63
2018-06-27T03:42:53.614Z,11.53
2018-06-27T03:45:28.093Z,12.30
2018-06-27T03:48:02.196Z,11.20
2018-06-27T03:50:36.402Z,12.43
2018-06-27T03:53:10.210Z,12.70
2018-06-27T03:55:44.177Z,12.33
2018-06-27T03:58:18.302Z,10.90
2018-06-27T04:00:52.403Z,11.17
2018-06-27T04:03:26.514Z,13.57
2018-06-27T04:06:00.507Z,12.67
2018-06-27T04:08:34.691Z,14.13
2018-06-27T04:11:08.970Z,13.23
2018-06-27T04:13:43.191Z,14.03
2018-06-27T04:16:17.286Z,14.93
2018-06-27T04:18:52.301Z,15.03
2018-06-27T04:21:26.066Z,14.30
2018-06-27T04:24:00.287Z,16.10
2018-06-27T04:26:34.636Z,16.17
2018-06-27T04:29:08.672Z,15.10
2018-06-27T04:31:42.762Z,14.87
2018-06-27T04:34:16.620Z,16.43
2018-06-27T04:36:50.523Z,17.33
2018-06-27T04:39:24.668Z,17.47
2018-06-27T04:41:59.386Z,14.97
2018-06-27T04:44:33.767Z,16.20
2018-06-27T04:47:10.901Z,16.90
2018-06-27T04:49:44.796Z,16.33
2018-06-27T04:52:18.929Z,15.53
2018-06-27T04:54:53.006Z,13.23
2018-06-27T04:57:27.143Z,12.90
2018-06-27T05:00:01.264Z,13.23
2018-06-27T05:02:35.651Z,13.30
2018-06-27T05:05:09.650Z,14.43
2018-06-27T05:07:43.661Z,13.00
2018-06-27T05:10:17.792Z,12.90
2018-06-27T05:12:51.824Z,14.13
2018-06-27T05:15:25.996Z,15.37
2018-06-27T05:17:59.947Z,14.97
2018-06-27T05:20:34.357Z,14.10
2018-06-27T05:23:08.546Z,14.87
2018-06-27T05:25:42.787Z,14.27
2018-06-27T05:28:16.796Z,14.40
2018-06-27T05:30:50.709Z,15.60
2018-06-27T05:33:24.672Z,15.23
2018-06-27T05:35:58.488Z,15.43
2018-06-27T05:38:32.533Z,18.53
2018-06-27T05:41:06.621Z,16.53
2018-06-27T05:43:40.790Z,16.13
2018-06-27T05:46:14.672Z,17.00
2018-06-27T05:48:48.580Z,16.37
2018-06-27T05:51:22.873Z,15.50
2018-06-27T05:53:56.876Z,17.60
2018-06-27T05:56:31.211Z,15.73
2018-06-27T05:59:05.053Z,15.87
2018-06-27T06:01:39.470Z,17.23
2018-06-27T06:04:13.387Z,18.67
2018-06-27T06:06:47.383Z,18.80
2018-06-27T06:12:02.192Z,18.73
2018-06-27T06:14:36.258Z,17.83
2018-06-27T06:17:10.202Z,19.03
2018-06-27T06:19:44.207Z,18.17
2018-06-27T06:22:19.663Z,16.20
2018-06-27T06:24:53.853Z,17.53
2018-06-27T06:27:27.987Z,20.90
2018-06-27T06:30:02.093Z,18.00
2018-06-27T06:32:36.349Z,18.27
2018-06-27T06:35:13.728Z,18.13
2018-06-27T06:37:47.719Z,17.47
2018-06-27T06:40:21.846Z,17.83
2018-06-27T06:42:55.671Z,20.60
2018-06-27T06:45:29.502Z,20.10
2018-06-27T06:48:04.084Z,18.77
2018-06-27T06:50:38.116Z,18.77
2018-06-27T06:53:12.232Z,20.10
2018-06-27T06:55:46.363Z,19.90
2018-06-27T06:58:20.374Z,20.03
2018-06-27T07:00:54.340Z,23.33
2018-06-27T07:03:28.031Z,20.87
2018-06-27T07:06:02.156Z,21.47
2018-06-27T07:08:36.443Z,22.33
2018-06-27T07:11:10.576Z,21.40
2018-06-27T07:13:44.707Z,20.43
2018-06-27T07:16:18.684Z,20.53
2018-06-27T07:18:52.959Z,20.50
2018-06-27T07:21:28.174Z,20.77
2018-06-27T07:24:02.812Z,21.20
2018-06-27T07:26:36.961Z,20.47
2018-06-27T07:29:11.013Z,19.00
2018-06-27T07:31:45.394Z,19.40
2018-06-27T07:34:19.367Z,18.30
2018-06-27T07:36:53.448Z,19.82
2018-06-27T07:39:27.539Z,19.83
2018-06-27T07:42:01.471Z,18.27
2018-06-27T07:44:35.675Z,19.67
2018-06-27T07:47:09.584Z,15.70
2018-06-27T07:49:43.576Z,15.43
2018-06-27T07:52:17.750Z,16.95
2018-06-27T07:54:51.948Z,16.27
2018-06-27T07:57:26.097Z,18.95
2018-06-27T08:00:00.135Z,16.97
2018-06-27T08:02:34.228Z,15.40
2018-06-27T08:05:08.376Z,15.63
2018-06-27T08:07:42.452Z,14.55
2018-06-27T08:10:16.235Z,18.05
2018-06-27T08:12:50.461Z,15.10
2018-06-27T08:15:24.573Z,15.55
2018-06-27T08:17:59.113Z,13.32
2018-06-27T08:20:33.335Z,14.13
2018-06-27T08:23:07.524Z,14.45
2018-06-27T08:25:47.390Z,11.83
2018-06-27T08:28:22.840Z,12.50
2018-06-27T08:30:57.199Z,11.73
2018-06-27T08:33:31.337Z,10.20
2018-06-27T08:36:05.276Z,11.88
2018-06-27T08:38:39.044Z,10.48
2018-06-27T08:41:13.155Z,11.48
2018-06-27T08:43:47.595Z,11.35
2018-06-27T08:46:21.467Z,11.00
2018-06-27T08:48:55.795Z,9.28
2018-06-27T08:51:29.883Z,10.28
2018-06-27T08:54:03.937Z,9.25
2018-06-27T08:56:37.974Z,7.97
2018-06-27T08:59:12.447Z,3.80
2018-06-27T09:01:46.366Z,3.98
2018-06-27T09:04:20.483Z,3.70
2018-06-27T09:06:54.354Z,3.52
2018-06-27T09:09:29.027Z,3.30
2018-06-27T09:12:03.333Z,3.20
2018-06-27T09:14:37.068Z,2.55
2018-06-27T09:17:11.204Z,2.40
2018-06-27T09:19:45.185Z,2.67
2018-06-27T09:22:19.345Z,2.70
2018-06-27T09:24:53.239Z,2.55
2018-06-27T09:27:27.304Z,2.50
2018-06-27T09:30:01.763Z,2.50
2018-06-27T09:32:37.227Z,3.10
2018-06-27T09:35:11.271Z,3.10
2018-06-27T09:37:45.222Z,3.20
2018-06-27T09:40:19.450Z,3.10
2018-06-27T09:42:53.696Z,3.12
2018-06-27T09:45:27.731Z,3.30
2018-06-27T09:48:01.437Z,3.52
2018-06-27T09:50:35.712Z,3.30
2018-06-27T09:53:09.828Z,3.00
2018-06-27T09:55:43.752Z,3.08
2018-06-27T09:58:17.870Z,2.75
2018-06-27T10:00:52.237Z,2.05
2018-06-27T10:03:26.582Z,2.00
2018-06-27T10:06:00.459Z,2.12
2018-06-27T10:08:34.653Z,2.58
2018-06-27T10:11:08.656Z,2.58
2018-06-27T10:13:42.692Z,2.33
2018-06-27T10:16:16.793Z,2.15
2018-06-27T10:18:51.131Z,2.30
2018-06-27T10:21:25.147Z,2.22
2018-06-27T10:23:59.161Z,1.98
2018-06-27T10:26:39.899Z,2.20
2018-06-27T10:29:14.089Z,2.65
2018-06-27T10:31:48.547Z,2.52
2018-06-27T10:34:22.786Z,2.55
2018-06-27T10:36:56.777Z,2.20
2018-06-27T10:39:30.686Z,2.40
2018-06-27T10:42:06.579Z,2.20
2018-06-27T10:44:40.595Z,2.37
2018-06-27T10:47:14.782Z,2.85
2018-06-27T10:49:49.513Z,2.60
2018-06-27T10:52:23.928Z,2.60
2018-06-27T10:54:57.937Z,2.80
2018-06-27T10:57:32.459Z,2.50
2018-06-27T11:00:06.316Z,3.22
2018-06-27T11:02:40.407Z,2.65
2018-06-27T11:05:14.673Z,2.70
2018-06-27T11:07:57.420Z,2.87
2018-06-27T11:10:32.354Z,2.62
2018-06-27T11:13:06.593Z,2.65
2018-06-27T11:15:41.043Z,2.77
2018-06-27T11:18:14.773Z,2.37
2018-06-27T11:20:49.509Z,2.70
2018-06-27T11:23:23.745Z,2.30
2018-06-27T11:25:58.342Z,2.45
2018-06-27T11:28:32.869Z,2.62
2018-06-27T11:31:07.336Z,2.58
2018-06-27T11:33:41.402Z,2.83
2018-06-27T11:36:15.308Z,2.85
2018-06-27T11:38:49.641Z,2.70
2018-06-27T11:41:23.647Z,2.72
2018-06-27T11:43:57.963Z,2.90
2018-06-27T11:46:32.708Z,3.22
2018-06-27T11:49:07.219Z,2.85
2018-06-27T11:51:41.518Z,3.00
2018-06-27T11:54:15.436Z,3.42
2018-06-27T11:56:49.484Z,3.30
2018-06-27T11:59:23.583Z,3.05
2018-06-27T12:01:58.029Z,2.83
2018-06-27T12:04:32.622Z,2.90
2018-06-27T12:07:07.520Z,2.77
2018-06-27T12:09:41.589Z,2.90
2018-06-27T12:12:15.580Z,2.90
2018-06-27T12:14:49.663Z,2.77
2018-06-27T12:17:24.324Z,2.47
2018-06-27T12:19:58.210Z,2.60
2018-06-27T12:22:32.103Z,2.58
2018-06-27T12:25:06.538Z,2.50
2018-06-27T12:27:40.704Z,2.60
2018-06-27T12:30:20.089Z,2.60
2018-06-27T12:32:54.323Z,2.50
2018-06-27T12:35:28.065Z,2.30
2018-06-27T12:38:02.399Z,2.30
2018-06-27T12:40:36.631Z,2.20
2018-06-27T12:43:10.749Z,2.27
2018-06-27T12:45:44.728Z,2.60
2018-06-27T12:48:19.473Z,2.10
2018-06-27T12:50:53.472Z,2.05
2018-06-27T12:53:27.460Z,1.90
2018-06-27T12:56:01.161Z,1.82
2018-06-27T12:58:35.342Z,2.12
2018-06-27T13:01:09.512Z,2.10
2018-06-27T13:03:44.497Z,2.17
2018-06-27T13:06:18.601Z,2.22
2018-06-27T13:08:52.681Z,1.90
2018-06-27T13:11:27.173Z,2.00
2018-06-27T13:14:01.106Z,1.82
2018-06-27T13:16:35.457Z,1.92
2018-06-27T13:19:09.699Z,1.98
2018-06-27T13:21:43.912Z,2.10
2018-06-27T13:24:18.167Z,1.72
2018-06-27T13:26:52.326Z,1.80
2018-06-27T13:29:26.317Z,2.12
2018-06-27T13:32:00.185Z,2.00
2018-06-27T13:34:34.057Z,1.98
2018-06-27T13:37:08.525Z,2.00
2018-06-27T13:39:42.788Z,2.25
2018-06-27T13:42:17.167Z,2.00
2018-06-27T13:44:50.868Z,1.87
2018-06-27T13:47:24.905Z,2.02
2018-06-27T13:49:58.936Z,2.10
2018-06-27T13:52:33.050Z,2.30
2018-06-27T13:55:07.244Z,1.70
2018-06-27T13:57:41.465Z,2.00
2018-06-27T14:00:15.473Z,1.80
2018-06-27T14:02:49.438Z,1.87
2018-06-27T14:05:23.419Z,1.70
2018-06-27T14:07:57.539Z,1.72
2018-06-27T14:10:31.469Z,1.72
2018-06-27T14:13:05.417Z,1.70
2018-06-27T14:15:39.428Z,1.72
2018-06-27T14:18:13.943Z,1.65
2018-06-27T14:20:48.076Z,1.60
2018-06-27T14:23:22.118Z,1.67
2018-06-27T14:25:56.054Z,1.77
2018-06-27T14:28:30.688Z,1.80
2018-06-27T14:31:04.739Z,1.57
2018-06-27T14:33:38.666Z,1.50
2018-06-27T14:36:12.702Z,1.50
2018-06-27T14:38:47.070Z,1.90
2018-06-27T14:41:21.364Z,1.50
2018-06-27T14:43:55.953Z,1.37
2018-06-27T14:46:30.124Z,1.65
2018-06-27T14:49:04.428Z,1.47
2018-06-27T14:51:38.482Z,2.02
2018-06-27T14:54:12.479Z,1.60
2018-06-27T14:56:46.429Z,1.87
2018-06-27T14:59:20.480Z,1.82
2018-06-27T15:01:54.576Z,1.70
2018-06-27T15:04:28.832Z,1.60
2018-06-27T15:07:03.169Z,1.60
2018-06-27T15:09:37.285Z,1.90
2018-06-27T15:12:11.262Z,1.70
2018-06-27T15:14:45.269Z,1.70
2018-06-27T15:17:19.303Z,1.80
2018-06-27T15:19:53.379Z,1.50
2018-06-27T15:22:27.724Z,1.85
2018-06-27T15:25:01.609Z,1.70
2018-06-27T15:27:35.609Z,1.67
2018-06-27T15:30:09.728Z,2.05
2018-06-27T15:32:43.757Z,1.70
2018-06-27T15:35:17.872Z,1.72
2018-06-27T15:37:52.127Z,2.20
2018-06-27T15:40:26.224Z,1.60
2018-06-27T15:43:00.200Z,1.85
2018-06-27T15:45:34.103Z,1.70
2018-06-27T15:48:08.376Z,1.90
2018-06-27T15:50:42.604Z,1.50
2018-06-27T15:53:17.837Z,2.42
2018-06-27T15:55:53.221Z,1.62
2018-06-27T15:58:27.754Z,1.55
2018-06-27T16:01:02.458Z,1.57
2018-06-27T16:03:36.289Z,1.65
2018-06-27T16:06:10.405Z,1.80
2018-06-27T16:08:44.429Z,1.85
2018-06-27T16:11:18.307Z,2.02
2018-06-27T16:13:52.580Z,1.80
2018-06-27T16:16:26.725Z,1.52
2018-06-27T16:19:02.105Z,1.60
2018-06-27T16:21:35.963Z,1.72
2018-06-27T16:24:10.710Z,1.90
2018-06-27T16:26:44.837Z,1.67
2018-06-27T16:29:18.902Z,1.80
2018-06-27T16:31:53.408Z,1.77
2018-06-27T16:34:27.860Z,1.67
2018-06-27T16:37:01.969Z,1.37
2018-06-27T16:39:36.266Z,1.70
2018-06-27T16:42:10.236Z,1.82
2018-06-27T16:44:44.530Z,1.72
2018-06-27T16:47:18.758Z,1.90
2018-06-27T16:49:52.904Z,1.85
2018-06-27T16:52:27.108Z,1.92
2018-06-27T16:55:01.360Z,1.65
2018-06-27T16:57:35.297Z,1.80
2018-06-27T17:00:09.748Z,1.92
2018-06-27T17:02:43.614Z,1.85
2018-06-27T17:05:17.704Z,1.90
2018-06-27T17:07:51.849Z,1.80
2018-06-27T17:10:25.802Z,1.80
2018-06-27T17:12:59.850Z,1.85
2018-06-27T17:15:34.000Z,2.00
2018-06-27T17:18:07.983Z,1.72
2018-06-27T17:20:42.683Z,1.55
2018-06-27T17:23:16.688Z,1.70
2018-06-27T17:25:51.179Z,1.70
2018-06-27T17:28:25.160Z,1.80
2018-06-27T17:30:59.374Z,1.60
2018-06-27T17:33:33.565Z,1.57
2018-06-27T17:36:07.944Z,1.70
2018-06-27T17:38:42.034Z,1.55
2018-06-27T17:41:16.199Z,1.40
2018-06-27T17:43:50.202Z,1.60
2018-06-27T17:46:24.303Z,1.60
2018-06-27T17:48:58.477Z,1.77
2018-06-27T17:51:32.816Z,1.95
2018-06-27T17:54:07.466Z,1.60
2018-06-27T17:56:41.349Z,1.75
2018-06-27T17:59:15.260Z,1.50
2018-06-27T18:01:49.684Z,1.75
2018-06-27T18:04:24.528Z,1.80
2018-06-27T18:06:58.713Z,1.82
2018-06-27T18:09:32.655Z,1.70
2018-06-27T18:12:06.874Z,1.80
2018-06-27T18:14:40.813Z,1.50
2018-06-27T18:17:15.004Z,1.50
2018-06-27T18:19:49.119Z,1.82
2018-06-27T18:22:23.786Z,1.70
2018-06-27T18:24:57.964Z,1.98
2018-06-27T18:27:32.145Z,1.90
2018-06-27T18:30:07.411Z,1.90
2018-06-27T18:32:41.516Z,1.62
2018-06-27T18:35:15.807Z,1.92
2018-06-27T18:37:49.715Z,1.95
2018-06-27T18:40:23.675Z,1.80
2018-06-27T18:42:58.686Z,2.12
2018-06-27T18:45:33.520Z,2.67
2018-06-27T18:48:07.937Z,2.58
2018-06-27T18:50:42.268Z,2.17
2018-06-27T18:53:16.758Z,1.80
2018-06-27T18:55:51.374Z,1.87
2018-06-27T18:58:25.906Z,1.70
2018-06-27T19:01:00.179Z,1.80
2018-06-27T19:03:34.077Z,1.70
2018-06-27T19:06:08.295Z,1.90
2018-06-27T19:08:42.568Z,1.77
2018-06-27T19:11:16.641Z,1.95
2018-06-27T19:13:50.706Z,1.70
2018-06-27T19:16:24.650Z,1.92
2018-06-27T19:18:59.183Z,1.80
2018-06-27T19:21:33.009Z,1.90
2018-06-27T19:24:07.103Z,1.90
2018-06-27T19:26:41.156Z,1.90
2018-06-27T19:29:15.490Z,1.85
2018-06-27T19:31:49.635Z,1.80
2018-06-27T19:34:28.464Z,2.00
2018-06-27T19:37:02.720Z,2.10
2018-06-27T19:39:38.129Z,1.87
2018-06-27T19:42:12.105Z,2.08
2018-06-27T19:44:46.402Z,2.20
2018-06-27T19:47:20.749Z,2.15
2018-06-27T19:49:54.780Z,1.90
2018-06-27T19:52:29.255Z,2.00
2018-06-27T19:55:03.841Z,2.10
2018-06-27T19:57:37.938Z,2.35
2018-06-27T20:00:12.277Z,1.92
2018-06-27T20:02:46.127Z,2.27
2018-06-27T20:05:20.758Z,2.37
2018-06-27T20:07:54.996Z,2.17
2018-06-27T20:10:29.375Z,2.30
2018-06-27T20:13:03.856Z,2.35
2018-06-27T20:15:38.047Z,2.20
2018-06-27T20:18:12.097Z,2.50
2018-06-27T20:20:46.097Z,2.50
2018-06-27T20:23:21.289Z,2.60
2018-06-27T20:25:55.620Z,2.40
2018-06-27T20:28:29.634Z,3.20
2018-06-27T20:31:03.581Z,3.17
2018-06-27T20:33:37.620Z,3.00
2018-06-27T20:36:11.513Z,2.67
2018-06-27T20:38:45.969Z,2.83
2018-06-27T20:41:20.409Z,2.70
2018-06-27T20:43:54.618Z,2.40
2018-06-27T20:46:28.960Z,2.67
2018-06-27T20:49:03.280Z,2.02
2018-06-27T20:51:37.401Z,2.45
2018-06-27T20:54:11.511Z,2.40
2018-06-27T20:56:45.720Z,2.55
2018-06-27T20:59:20.121Z,2.67
2018-06-27T21:01:54.253Z,2.42
2018-06-27T21:04:28.506Z,2.70
2018-06-27T21:07:02.429Z,2.35
2018-06-27T21:09:36.879Z,2.40
2018-06-27T21:12:11.021Z,2.35
2018-06-27T21:14:45.531Z,2.50
2018-06-27T21:17:19.541Z,2.70
2018-06-27T21:19:53.838Z,2.90
2018-06-27T21:22:27.968Z,2.70
2018-06-27T21:25:02.165Z,2.67
2018-06-27T21:27:36.973Z,2.80
2018-06-27T21:30:11.324Z,2.83
2018-06-27T21:32:45.127Z,3.00
2018-06-27T21:35:19.724Z,3.00
2018-06-27T21:37:53.790Z,2.80
2018-06-27T21:40:27.959Z,3.10
2018-06-27T21:43:02.151Z,2.90
2018-06-27T21:45:36.223Z,2.77
2018-06-27T21:48:10.450Z,2.77
2018-06-27T21:50:44.607Z,2.60
2018-06-27T21:53:18.515Z,2.90
2018-06-27T21:55:52.916Z,2.40
2018-06-27T21:58:27.040Z,3.00
2018-06-27T22:01:02.008Z,2.87
2018-06-27T22:03:36.403Z,2.90
2018-06-27T22:06:10.804Z,2.80
2018-06-27T22:08:44.829Z,2.53
2018-06-27T22:11:19.658Z,2.60
2018-06-27T22:13:53.789Z,2.43
2018-06-27T22:16:27.999Z,2.70
2018-06-27T22:19:02.080Z,2.70
2018-06-27T22:21:36.078Z,2.40
2018-06-27T22:24:10.365Z,2.97
2018-06-27T22:26:44.398Z,2.83
2018-06-27T22:29:18.828Z,2.60
2018-06-27T22:31:52.896Z,2.40
2018-06-27T22:34:27.020Z,2.93
2018-06-27T22:37:01.909Z,2.90
2018-06-27T22:39:35.737Z,2.87
2018-06-27T22:42:09.866Z,2.90
2018-06-27T22:44:43.745Z,2.93
2018-06-27T22:47:17.811Z,3.00
2018-06-27T22:49:52.170Z,3.23
2018-06-27T22:52:26.727Z,3.30
2018-06-27T22:55:00.646Z,3.77
2018-06-27T22:57:34.826Z,3.80
2018-06-27T23:00:09.108Z,3.87
2018-06-27T23:02:43.244Z,3.50
2018-06-27T23:05:17.553Z,3.73
2018-06-27T23:07:51.540Z,3.30
2018-06-27T23:10:25.478Z,3.67
2018-06-27T23:12:59.459Z,2.90
2018-06-27T23:15:33.599Z,2.90
2018-06-27T23:18:07.581Z,3.30
2018-06-27T23:20:41.572Z,3.23
2018-06-27T23:23:15.543Z,3.43
2018-06-27T23:25:49.520Z,3.40
2018-06-27T23:28:23.429Z,4.30
2018-06-27T23:30:57.584Z,3.60
2018-06-27T23:33:31.481Z,3.57
2018-06-27T23:36:06.267Z,4.63
2018-06-27T23:38:40.213Z,5.00
2018-06-27T23:41:14.189Z,4.13
2018-06-27T23:43:48.200Z,3.67
2018-06-27T23:46:22.040Z,4.00
2018-06-27T23:48:55.844Z,4.30
2018-06-27T23:51:29.874Z,3.80
2018-06-27T23:54:03.859Z,3.10
2018-06-27T23:56:37.745Z,2.90
2018-06-27T23:59:11.784Z,2.90
